createdAt,value
2018-08-22T06:09:17.298Z,3.93
2018-08-22T06:11:45.530Z,3.83
2018-08-22T06:14:13.760Z,4.10
2018-08-22T06:16:42.005Z,3.70
2018-08-22T06:19:10.252Z,3.73
2018-08-22T06:21:38.495Z,4.03
2018-08-22T06:24:06.720Z,4.07
2018-08-22T06:26:34.960Z,3.70
2018-08-22T06:29:03.224Z,4.70
2018-08-22T06:31:31.467Z,5.00
2018-08-22T06:33:59.683Z,4.13
2018-08-22T06:36:27.982Z,4.43
2018-08-22T06:38:56.159Z,4.30
2018-08-22T06:41:24.400Z,4.27
2018-08-22T06:43:52.628Z,4.27
2018-08-22T06:46:20.872Z,3.90
2018-08-22T06:48:49.100Z,4.57
2018-08-22T06:51:17.348Z,3.70
2018-08-22T06:53:45.573Z,4.40
2018-08-22T06:56:13.808Z,4.63
2018-08-22T06:58:42.036Z,3.93
2018-08-22T07:01:10.293Z,4.50
2018-08-22T07:03:42.015Z,3.77
2018-08-22T07:06:10.244Z,4.40
2018-08-22T07:08:38.464Z,4.97
2018-08-22T07:11:06.701Z,4.77
2018-08-22T07:13:34.928Z,4.83
2018-08-22T07:16:03.165Z,4.80
2018-08-22T07:18:31.396Z,5.03
2018-08-22T07:20:59.719Z,4.93
2018-08-22T07:23:27.872Z,5.40
2018-08-22T07:25:56.084Z,5.07
2018-08-22T07:28:24.340Z,5.27
2018-08-22T07:30:52.612Z,5.47
2018-08-22T07:33:20.855Z,5.80
2018-08-22T07:35:49.160Z,4.53
2018-08-22T07:38:17.355Z,5.30
2018-08-22T07:40:45.577Z,5.27
2018-08-22T07:43:13.848Z,5.33
2018-08-22T07:45:42.081Z,4.90
2018-08-22T07:48:10.315Z,4.47
2018-08-22T07:50:38.536Z,4.70
2018-08-22T07:53:06.769Z,3.83
2018-08-22T07:55:36.973Z,4.17
2018-08-22T07:58:05.267Z,3.80
2018-08-22T08:00:33.512Z,4.00
2018-08-22T08:03:01.788Z,4.07
2018-08-22T08:05:30.095Z,4.10
2018-08-22T08:07:58.476Z,3.70
2018-08-22T08:10:33.716Z,4.17
2018-08-22T08:13:02.547Z,3.83
2018-08-22T08:15:30.747Z,3.50
2018-08-22T08:17:59.032Z,3.90
2018-08-22T08:20:27.263Z,3.40
2018-08-22T08:22:55.557Z,4.20
2018-08-22T08:25:23.846Z,3.23
2018-08-22T08:27:52.059Z,3.63
2018-08-22T08:30:20.272Z,3.43
2018-08-22T08:32:48.515Z,3.30
2018-08-22T08:35:16.735Z,3.20
2018-08-22T08:37:44.964Z,3.03
2018-08-22T08:40:13.180Z,3.30
2018-08-22T08:42:41.409Z,4.40
2018-08-22T08:45:10.772Z,4.10
2018-08-22T08:47:39.008Z,4.13
2018-08-22T08:50:07.219Z,3.93
2018-08-22T08:52:35.688Z,4.13
2018-08-22T08:55:03.970Z,4.40
2018-08-22T08:57:32.237Z,4.30
2018-08-22T09:00:00.608Z,4.67
2018-08-22T09:02:28.856Z,4.47
2018-08-22T09:04:57.080Z,5.00
2018-08-22T09:07:25.329Z,3.43
2018-08-22T09:09:53.564Z,3.80
2018-08-22T09:12:21.857Z,4.43
2018-08-22T09:14:50.046Z,4.53
2018-08-22T09:17:18.283Z,5.13
2018-08-22T09:19:46.549Z,4.80
2018-08-22T09:22:14.817Z,5.73
2018-08-22T09:24:43.062Z,5.90
2018-08-22T09:27:11.289Z,4.27
2018-08-22T09:29:39.552Z,3.37
2018-08-22T09:32:07.775Z,2.63
2018-08-22T09:34:36.024Z,2.07
2018-08-22T09:37:04.368Z,2.63
2018-08-22T09:39:32.720Z,2.20
2018-08-22T09:42:00.889Z,2.10
2018-08-22T09:44:29.125Z,2.30
2018-08-22T09:46:57.347Z,2.07
2018-08-22T09:49:25.585Z,2.13
2018-08-22T09:51:53.800Z,2.23
2018-08-22T09:54:22.040Z,2.10
2018-08-22T09:56:50.248Z,1.80
2018-08-22T09:59:18.471Z,1.77
2018-08-22T10:01:46.689Z,2.10
2018-08-22T10:04:14.922Z,2.30
2018-08-22T10:06:48.196Z,2.13
2018-08-22T10:09:18.212Z,1.83
2018-08-22T10:11:46.481Z,1.40
2018-08-22T10:14:14.855Z,2.83
2018-08-22T10:16:43.108Z,1.50
2018-08-22T10:19:11.392Z,1.67
2018-08-22T10:21:39.631Z,1.57
2018-08-22T10:24:07.888Z,1.67
2018-08-22T10:26:36.204Z,1.80
2018-08-22T10:29:04.384Z,1.97
2018-08-22T10:31:32.604Z,1.70
2018-08-22T10:34:00.840Z,1.60
2018-08-22T10:36:29.068Z,1.83
2018-08-22T10:38:57.317Z,1.33
2018-08-22T10:41:25.554Z,1.50
2018-08-22T10:43:53.793Z,1.53
2018-08-22T10:46:22.013Z,1.50
2018-08-22T10:48:50.432Z,2.07
2018-08-22T10:51:18.651Z,1.57
2018-08-22T10:53:46.893Z,1.70
2018-08-22T10:56:15.177Z,1.57
2018-08-22T10:58:43.484Z,1.70
2018-08-22T11:01:11.700Z,1.90
2018-08-22T11:03:39.940Z,1.60
2018-08-22T11:06:08.196Z,1.43
2018-08-22T11:08:36.443Z,1.53
2018-08-22T11:11:04.663Z,1.83
2018-08-22T11:13:33.083Z,1.60
2018-08-22T11:16:01.307Z,1.90
2018-08-22T11:18:29.592Z,1.77
2018-08-22T11:21:09.086Z,1.50
2018-08-22T11:23:48.576Z,1.63
2018-08-22T11:26:27.947Z,2.23
2018-08-22T11:29:07.434Z,2.13
2018-08-22T11:31:46.920Z,1.33
2018-08-22T11:34:26.569Z,1.87
2018-08-22T11:37:05.138Z,1.63
2018-08-22T11:39:33.408Z,2.03
2018-08-22T11:42:01.946Z,1.63
2018-08-22T11:44:30.444Z,2.07
2018-08-22T11:46:58.892Z,1.50
2018-08-22T11:49:27.301Z,1.67
2018-08-22T11:51:55.707Z,1.80
2018-08-22T11:54:23.968Z,1.70
2018-08-22T11:56:52.199Z,1.73
2018-08-22T11:59:20.712Z,1.67
2018-08-22T12:01:49.321Z,2.00
2018-08-22T12:04:17.531Z,1.80
2018-08-22T12:06:45.792Z,1.40
2018-08-22T12:09:14.187Z,2.10
2018-08-22T12:11:42.927Z,1.83
2018-08-22T12:14:11.188Z,1.80
2018-08-22T12:16:39.955Z,1.63
2018-08-22T12:19:08.680Z,1.80
2018-08-22T12:21:36.993Z,1.50
2018-08-22T12:24:05.506Z,1.80
2018-08-22T12:26:33.808Z,1.53
2018-08-22T12:29:02.182Z,2.00
2018-08-22T12:31:30.424Z,1.63
2018-08-22T12:33:58.671Z,1.70
2018-08-22T12:36:26.920Z,1.63
2018-08-22T12:38:55.192Z,1.70
2018-08-22T12:41:23.432Z,1.60
2018-08-22T12:43:51.656Z,1.90
2018-08-22T12:46:19.908Z,1.97
2018-08-22T12:48:48.144Z,1.57
2018-08-22T12:51:16.400Z,1.67
2018-08-22T12:53:44.632Z,1.90
2018-08-22T12:56:12.892Z,1.87
2018-08-22T12:58:41.113Z,1.93
2018-08-22T13:01:09.672Z,1.93
2018-08-22T13:03:37.918Z,1.87
2018-08-22T13:06:06.629Z,1.90
2018-08-22T13:08:34.876Z,1.90
2018-08-22T13:11:03.141Z,1.90
2018-08-22T13:13:31.523Z,1.63
2018-08-22T13:15:59.768Z,1.40
2018-08-22T13:18:28.011Z,1.70
2018-08-22T13:20:56.268Z,1.97
2018-08-22T13:23:24.492Z,1.60
2018-08-22T13:25:52.728Z,1.50
2018-08-22T13:28:20.948Z,1.60
2018-08-22T13:30:49.183Z,1.70
2018-08-22T13:33:17.413Z,1.90
2018-08-22T13:35:45.655Z,1.40
2018-08-22T13:38:13.893Z,2.00
2018-08-22T13:40:42.137Z,1.70
2018-08-22T13:43:10.369Z,1.80
2018-08-22T13:45:38.632Z,1.80
2018-08-22T13:48:07.256Z,1.93
2018-08-22T13:50:35.504Z,1.70
2018-08-22T13:53:03.736Z,2.13
2018-08-22T13:55:31.961Z,1.70
2018-08-22T13:58:00.216Z,1.60
2018-08-22T14:00:28.453Z,1.70
2018-08-22T14:02:56.696Z,1.87
2018-08-22T14:05:24.924Z,1.93
2018-08-22T14:07:53.179Z,1.80
2018-08-22T14:10:21.391Z,1.50
2018-08-22T14:12:49.640Z,1.57
2018-08-22T14:15:17.861Z,1.90
2018-08-22T14:17:46.132Z,1.90
2018-08-22T14:20:14.356Z,1.67
2018-08-22T14:22:42.588Z,2.40
2018-08-22T14:25:10.827Z,1.50
2018-08-22T14:27:39.080Z,1.47
2018-08-22T14:30:07.507Z,1.87
2018-08-22T14:32:35.753Z,1.90
2018-08-22T14:35:03.981Z,1.80
2018-08-22T14:37:32.228Z,2.40
2018-08-22T14:40:00.444Z,1.93
2018-08-22T14:42:28.692Z,1.87
2018-08-22T14:44:56.972Z,1.70
2018-08-22T14:47:25.186Z,1.90
2018-08-22T14:49:53.412Z,1.53
2018-08-22T14:52:21.654Z,2.20
2018-08-22T14:54:49.871Z,2.13
2018-08-22T14:57:18.104Z,1.67
2018-08-22T14:59:46.332Z,1.90
2018-08-22T15:02:14.595Z,1.93
2018-08-22T15:04:42.813Z,1.80
2018-08-22T15:07:11.050Z,2.00
2018-08-22T15:09:39.308Z,2.13
2018-08-22T15:12:07.555Z,2.00
2018-08-22T15:14:35.771Z,1.70
2018-08-22T15:17:04.032Z,2.10
2018-08-22T15:19:32.272Z,2.00
2018-08-22T15:22:00.508Z,1.80
2018-08-22T15:24:28.735Z,2.40
2018-08-22T15:26:56.972Z,2.20
2018-08-22T15:29:25.200Z,1.97
2018-08-22T15:31:53.452Z,2.10
2018-08-22T15:34:21.676Z,1.97
2018-08-22T15:36:49.928Z,2.17
2018-08-22T15:39:18.164Z,2.37
2018-08-22T15:41:46.437Z,1.97
2018-08-22T15:44:14.668Z,1.97
2018-08-22T15:46:43.700Z,2.37
2018-08-22T15:49:11.944Z,2.13
2018-08-22T15:51:40.176Z,2.20
2018-08-22T15:54:10.888Z,2.57
2018-08-22T15:56:40.256Z,2.00
2018-08-22T15:59:09.099Z,1.80
2018-08-22T16:01:37.412Z,2.20
2018-08-22T16:04:05.660Z,2.50
2018-08-22T16:06:33.922Z,1.90
2018-08-22T16:09:02.164Z,2.20
2018-08-22T16:11:30.383Z,2.20
2018-08-22T16:13:58.628Z,2.10
2018-08-22T16:16:26.860Z,2.13
2018-08-22T16:18:55.152Z,2.13
2018-08-22T16:21:23.374Z,2.23
2018-08-22T16:23:51.616Z,1.90
2018-08-22T16:26:21.632Z,1.83
2018-08-22T16:28:54.561Z,1.70
2018-08-22T16:31:24.665Z,2.10
2018-08-22T16:33:52.922Z,2.40
2018-08-22T16:36:26.357Z,2.20
2018-08-22T16:38:54.605Z,2.00
2018-08-22T16:41:22.839Z,2.20
2018-08-22T16:43:51.088Z,2.30
2018-08-22T16:46:19.316Z,1.90
2018-08-22T16:48:49.167Z,2.00
2018-08-22T16:51:17.440Z,2.40
2018-08-22T16:54:02.355Z,2.57
2018-08-22T16:56:32.891Z,2.33
2018-08-22T16:59:05.936Z,1.87
2018-08-22T17:01:34.176Z,2.30
2018-08-22T17:04:02.445Z,2.40
2018-08-22T17:06:30.668Z,2.10
2018-08-22T17:08:59.233Z,2.80
2018-08-22T17:11:27.472Z,2.27
2018-08-22T17:13:55.710Z,2.27
2018-08-22T17:16:24.750Z,2.07
2018-08-22T17:18:53.213Z,1.83
2018-08-22T17:21:21.447Z,1.70
2018-08-22T17:23:50.024Z,2.20
2018-08-22T17:26:19.379Z,1.93
2018-08-22T17:28:49.448Z,2.40
2018-08-22T17:31:18.284Z,2.33
2018-08-22T17:33:55.684Z,2.10
2018-08-22T17:36:23.994Z,2.07
2018-08-22T17:38:53.552Z,2.10
2018-08-22T17:41:22.880Z,2.80
2018-08-22T17:44:03.470Z,2.07
2018-08-22T17:46:33.848Z,2.73
2018-08-22T17:49:02.107Z,5.30
2018-08-22T17:51:30.331Z,5.67
2018-08-22T17:53:58.577Z,2.63
2018-08-22T17:56:27.508Z,2.73
2018-08-22T17:58:56.665Z,4.17
2018-08-22T18:01:25.076Z,2.60
2018-08-22T18:03:55.324Z,2.93
2018-08-22T18:06:23.603Z,2.77
2018-08-22T18:08:51.876Z,3.67
2018-08-22T18:11:20.161Z,3.70
2018-08-22T18:13:48.422Z,3.47
2018-08-22T18:16:16.652Z,3.63
2018-08-22T18:18:44.920Z,3.17
2018-08-22T18:21:13.140Z,4.83
2018-08-22T18:23:48.636Z,3.67
2018-08-22T18:26:16.857Z,3.23
2018-08-22T18:28:45.192Z,2.97
2018-08-22T18:31:13.436Z,2.73
2018-08-22T18:33:55.672Z,3.53
2018-08-22T18:36:24.577Z,3.40
2018-08-22T18:39:01.835Z,3.73
2018-08-22T18:41:30.100Z,3.90
2018-08-22T18:43:58.331Z,3.23
2018-08-22T18:46:26.608Z,3.20
2018-08-22T18:48:54.856Z,3.10
2018-08-22T18:51:23.101Z,3.20
2018-08-22T18:53:51.328Z,3.60
2018-08-22T18:56:21.422Z,3.43
2018-08-22T18:58:49.700Z,3.20
2018-08-22T19:01:18.269Z,4.03
2018-08-22T19:03:46.504Z,5.10
2018-08-22T19:06:14.744Z,4.50
2018-08-22T19:08:42.968Z,3.33
2018-08-22T19:11:11.330Z,2.97
2018-08-22T19:13:39.458Z,3.23
2018-08-22T19:16:08.917Z,3.10
2018-08-22T19:18:37.376Z,3.37
2018-08-22T19:21:07.676Z,3.30
2018-08-22T19:23:35.902Z,3.47
2018-08-22T19:26:04.996Z,3.60
2018-08-22T19:28:44.613Z,3.33
2018-08-22T19:31:12.860Z,3.20
2018-08-22T19:33:41.092Z,2.87
2018-08-22T19:36:09.333Z,3.13
2018-08-22T19:38:37.556Z,3.17
2018-08-22T19:41:20.524Z,3.20
2018-08-22T19:43:48.752Z,3.07
2018-08-22T19:46:16.996Z,3.20
2018-08-22T19:48:45.219Z,3.20
2018-08-22T19:51:13.464Z,3.07
2018-08-22T19:53:53.412Z,3.07
